Time;durP1;ratioP1;P1;durP2;ratioP2;P2;SDS_P1;SDS_P2;PMS_P1;PMS_P2;Temp;Humidity;BMP_temperature;BMP_pressure;BME280_temperature;BME280_humidity;BME280_pressure;Samples;Min_cycle;Max_cycle;Signal;HPM_P1;HPM_P2
2024/04/02 00:01:47;;;;;;;3.38;1.52;;;;;;;;;;5040220;28;25084;-62
2024/04/02 00:04:14;;;;;;;2.30;1.48;;;;;;;;;;5039045;28;25061;-63
2024/04/02 00:06:40;;;;;;;7.05;1.42;;;;;;;;;;5043346;28;25143;-63
2024/04/02 00:09:06;;;;;;;4.05;1.45;;;;;;;;;;5047405;28;25092;-63
2024/04/02 00:11:32;;;;;;;1.77;1.33;;;;;;;;;;5042994;28;25083;-64
2024/04/02 00:13:58;;;;;;;2.20;1.17;;;;;;;;;;5045920;28;25073;-62
2024/04/02 00:16:24;;;;;;;3.92;2.10;;;;;;;;;;5038860;28;25060;-62
2024/04/02 00:18:50;;;;;;;3.00;1.40;;;;;;;;;;5046715;28;25172;-63
2024/04/02 00:21:16;;;;;;;2.30;1.38;;;;;;;;;;5040777;28;25162;-66
2024/04/02 00:23:42;;;;;;;2.55;1.30;;;;;;;;;;5043839;28;25069;-62
2024/04/02 00:26:09;;;;;;;1.40;1.30;;;;;;;;;;5049715;28;25107;-62
2024/04/02 00:28:35;;;;;;;3.28;1.70;;;;;;;;;;5046342;28;25106;-63
2024/04/02 00:31:01;;;;;;;3.25;1.30;;;;;;;;;;5044822;28;25128;-64
2024/04/02 00:33:28;;;;;;;4.18;1.50;;;;;;;;;;5045810;28;25066;-64
2024/04/02 00:36:03;;;;;;;4.03;1.52;;;;;;;;;;5040335;28;25053;-63
2024/04/02 00:38:30;;;;;;;4.07;1.70;;;;;;;;;;5048471;28;25126;-64
2024/04/02 00:40:56;;;;;;;2.67;1.80;;;;;;;;;;5042000;28;25073;-64
2024/04/02 00:43:22;;;;;;;4.18;1.88;;;;;;;;;;5039348;28;25051;-64
2024/04/02 00:45:48;;;;;;;4.28;1.70;;;;;;;;;;5046673;28;25054;-63
2024/04/02 00:48:15;;;;;;;3.83;2.00;;;;;;;;;;5045077;28;25081;-64
2024/04/02 00:50:41;;;;;;;3.85;1.80;;;;;;;;;;5040918;28;25048;-63
2024/04/02 00:53:07;;;;;;;2.95;1.85;;;;;;;;;;5037928;28;25132;-63
2024/04/02 00:55:37;;;;;;;4.50;1.80;;;;;;;;;;5044277;28;25084;-63
2024/04/02 00:58:03;;;;;;;3.30;1.55;;;;;;;;;;5041816;28;25068;-62
2024/04/02 01:00:29;;;;;;;4.30;2.30;;;;;;;;;;5041430;28;25080;-64
2024/04/02 01:02:55;;;;;;;4.40;1.85;;;;;;;;;;5046892;28;25113;-65
2024/04/02 01:05:21;;;;;;;2.20;1.80;;;;;;;;;;5046131;28;25079;-63
2024/04/02 01:07:47;;;;;;;2.25;1.95;;;;;;;;;;5052208;28;25120;-64
2024/04/02 01:10:13;;;;;;;3.65;1.80;;;;;;;;;;5049540;28;25098;-64
2024/04/02 01:12:39;;;;;;;4.10;1.70;;;;;;;;;;5038190;28;25159;-63
2024/04/02 01:15:05;;;;;;;6.82;2.00;;;;;;;;;;5043710;28;25068;-62
2024/04/02 01:17:31;;;;;;;4.63;2.20;;;;;;;;;;5045563;28;25080;-64
2024/04/02 01:19:57;;;;;;;6.55;2.83;;;;;;;;;;5053857;28;25068;-64
2024/04/02 01:22:23;;;;;;;8.23;2.58;;;;;;;;;;5050617;28;25163;-63
2024/04/02 01:24:53;;;;;;;4.60;3.05;;;;;;;;;;5040712;28;25094;-64
2024/04/02 01:27:19;;;;;;;5.13;2.80;;;;;;;;;;5047587;28;25070;-64
2024/04/02 01:29:45;;;;;;;6.47;2.92;;;;;;;;;;5040192;28;25144;-62
2024/04/02 01:32:12;;;;;;;6.20;3.08;;;;;;;;;;5046644;28;25055;-62
2024/04/02 01:34:38;;;;;;;8.00;3.10;;;;;;;;;;5045190;28;25072;-63
2024/04/02 01:37:04;;;;;;;3.58;2.25;;;;;;;;;;5047806;28;25177;-62
2024/04/02 01:39:30;;;;;;;4.70;2.95;;;;;;;;;;5045143;28;25098;-63
2024/04/02 01:41:56;;;;;;;8.77;3.28;;;;;;;;;;5047907;28;25074;-63
2024/04/02 01:44:22;;;;;;;6.00;2.95;;;;;;;;;;5047857;28;25066;-63
2024/04/02 01:46:48;;;;;;;7.85;3.70;;;;;;;;;;5044377;28;25069;-63
2024/04/02 01:49:14;;;;;;;10.15;2.65;;;;;;;;;;5045142;28;25140;-61
2024/04/02 01:51:40;;;;;;;4.10;2.20;;;;;;;;;;5041208;28;25066;-63
2024/04/02 01:54:06;;;;;;;5.88;2.78;;;;;;;;;;5047781;28;25045;-62
2024/04/02 01:56:32;;;;;;;5.97;2.33;;;;;;;;;;5043867;28;25066;-63
2024/04/02 01:58:58;;;;;;;5.25;2.40;;;;;;;;;;5043111;28;25154;-62
2024/04/02 02:01:24;;;;;;;3.83;2.28;;;;;;;;;;5050783;28;25061;-63
2024/04/02 02:03:50;;;;;;;7.28;2.45;;;;;;;;;;5041803;28;25051;-64
2024/04/02 02:06:16;;;;;;;5.10;2.50;;;;;;;;;;5039842;28;25059;-64
2024/04/02 02:08:42;;;;;;;5.68;2.40;;;;;;;;;;5041456;28;25049;-64
2024/04/02 02:11:08;;;;;;;6.05;2.22;;;;;;;;;;5042402;28;25070;-62
2024/04/02 02:13:38;;;;;;;3.28;1.85;;;;;;;;;;5035712;28;25064;-62
2024/04/02 02:16:04;;;;;;;3.15;2.10;;;;;;;;;;5045493;28;25065;-63
2024/04/02 02:18:31;;;;;;;5.22;2.20;;;;;;;;;;5042900;28;25054;-62
2024/04/02 02:20:58;;;;;;;5.07;2.20;;;;;;;;;;5046400;28;25060;-63
2024/04/02 02:23:25;;;;;;;3.03;2.08;;;;;;;;;;5040026;28;25064;-63
2024/04/02 02:25:51;;;;;;;5.53;2.00;;;;;;;;;;5041314;28;25066;-66
2024/04/02 02:28:18;;;;;;;4.93;2.13;;;;;;;;;;5045185;28;25122;-63
2024/04/02 02:30:44;;;;;;;3.45;2.20;;;;;;;;;;5042845;28;25046;-63
2024/04/02 02:33:10;;;;;;;4.18;1.95;;;;;;;;;;5039266;28;25054;-62
2024/04/02 02:35:36;;;;;;;4.13;2.13;;;;;;;;;;5041645;28;25060;-63
2024/04/02 02:38:02;;;;;;;7.47;2.55;;;;;;;;;;5043048;28;25154;-63
2024/04/02 02:40:32;;;;;;;3.03;1.83;;;;;;;;;;5044295;28;25154;-62
2024/04/02 02:42:58;;;;;;;5.97;2.40;;;;;;;;;;5043465;28;25137;-62
2024/04/02 02:45:25;;;;;;;4.80;2.35;;;;;;;;;;5046495;28;25123;-62
2024/04/02 02:47:51;;;;;;;4.97;2.42;;;;;;;;;;5038631;28;25112;-65
2024/04/02 02:50:17;;;;;;;4.70;2.22;;;;;;;;;;5046822;28;25045;-63
2024/04/02 02:52:43;;;;;;;4.40;2.00;;;;;;;;;;5052602;28;25178;-62
2024/04/02 02:55:09;;;;;;;9.15;2.30;;;;;;;;;;5048802;28;25137;-62
2024/04/02 02:57:37;;;;;;;5.85;2.35;;;;;;;;;;5047849;28;25059;-63
2024/04/02 03:00:05;;;;;;;5.13;2.33;;;;;;;;;;5049329;28;25068;-63
2024/04/02 03:02:33;;;;;;;6.07;2.53;;;;;;;;;;5049976;28;25086;-62
2024/04/02 03:04:59;;;;;;;4.43;2.20;;;;;;;;;;5048728;28;25059;-63
2024/04/02 03:07:25;;;;;;;5.50;2.28;;;;;;;;;;5045111;28;25091;-62
2024/04/02 03:09:52;;;;;;;3.88;2.20;;;;;;;;;;5041885;28;25121;-64
2024/04/02 03:12:18;;;;;;;5.78;2.35;;;;;;;;;;5043832;28;25063;-64
2024/04/02 03:14:44;;;;;;;6.20;2.30;;;;;;;;;;5054779;28;25059;-63
2024/04/02 03:17:10;;;;;;;4.05;2.60;;;;;;;;;;5052631;28;25070;-64
2024/04/02 03:19:36;;;;;;;6.55;2.53;;;;;;;;;;5046992;28;25061;-63
2024/04/02 03:22:02;;;;;;;4.85;2.10;;;;;;;;;;5043353;28;25076;-63
2024/04/02 03:24:28;;;;;;;5.50;2.58;;;;;;;;;;5044134;28;25145;-64
2024/04/02 03:26:54;;;;;;;6.57;3.30;;;;;;;;;;5042563;28;25093;-62
2024/04/02 03:29:20;;;;;;;6.03;2.33;;;;;;;;;;5039363;28;25073;-62
2024/04/02 03:31:47;;;;;;;4.38;2.30;;;;;;;;;;5046157;28;25092;-63
2024/04/02 03:34:13;;;;;;;4.97;2.25;;;;;;;;;;5049058;28;25130;-63
2024/04/02 03:36:39;;;;;;;5.10;2.50;;;;;;;;;;5048645;28;25084;-63
2024/04/02 03:39:06;;;;;;;7.10;2.28;;;;;;;;;;5046658;28;25064;-62
2024/04/02 03:41:32;;;;;;;6.03;2.72;;;;;;;;;;5046281;28;25108;-64
2024/04/02 03:43:58;;;;;;;6.45;2.47;;;;;;;;;;5043318;28;25068;-65
2024/04/02 03:46:24;;;;;;;5.20;2.42;;;;;;;;;;5043927;28;25098;-64
2024/04/02 03:48:50;;;;;;;4.97;2.35;;;;;;;;;;5044114;28;25058;-63
2024/04/02 03:51:16;;;;;;;6.80;2.55;;;;;;;;;;5047633;28;25071;-62
2024/04/02 03:53:42;;;;;;;7.03;2.65;;;;;;;;;;5053746;28;25136;-62
2024/04/02 03:56:08;;;;;;;5.40;2.08;;;;;;;;;;5047439;28;25101;-61
2024/04/02 03:58:34;;;;;;;7.22;2.90;;;;;;;;;;5053416;28;25068;-63
2024/04/02 04:01:00;;;;;;;7.63;2.40;;;;;;;;;;5045268;28;25102;-64
2024/04/02 04:03:27;;;;;;;5.57;2.33;;;;;;;;;;5047134;28;25060;-62
2024/04/02 04:05:57;;;;;;;6.93;2.67;;;;;;;;;;5047169;28;25051;-63
2024/04/02 04:08:23;;;;;;;7.68;2.40;;;;;;;;;;5048552;28;25133;-64
2024/04/02 04:10:49;;;;;;;8.70;2.22;;;;;;;;;;5043787;28;25126;-63
2024/04/02 04:13:15;;;;;;;6.22;2.85;;;;;;;;;;5047000;28;25057;-63
2024/04/02 04:15:42;;;;;;;11.05;3.00;;;;;;;;;;5046379;28;25087;-62
2024/04/02 04:18:08;;;;;;;7.00;2.28;;;;;;;;;;5046037;28;25119;-63
2024/04/02 04:20:34;;;;;;;5.05;2.35;;;;;;;;;;5049240;28;25072;-60
2024/04/02 04:23:00;;;;;;;8.95;2.40;;;;;;;;;;5047986;28;25070;-63
2024/04/02 04:25:26;;;;;;;10.00;3.05;;;;;;;;;;5049448;28;25099;-65
2024/04/02 04:27:52;;;;;;;7.35;2.55;;;;;;;;;;5046501;28;25117;-62
2024/04/02 04:30:18;;;;;;;11.88;3.00;;;;;;;;;;5045321;28;25072;-62
2024/04/02 04:32:45;;;;;;;6.20;2.33;;;;;;;;;;5045727;28;25056;-61
2024/04/02 04:35:10;;;;;;;5.55;2.67;;;;;;;;;;5042074;28;25107;-63
2024/04/02 04:37:36;;;;;;;6.47;2.53;;;;;;;;;;5057016;28;25063;-62
2024/04/02 04:40:03;;;;;;;9.57;2.50;;;;;;;;;;5042692;28;25133;-63
2024/04/02 04:42:32;;;;;;;5.15;2.58;;;;;;;;;;5044782;28;25051;-65
2024/04/02 04:44:58;;;;;;;5.35;2.40;;;;;;;;;;5043696;28;25082;-63
2024/04/02 04:47:24;;;;;;;7.72;2.65;;;;;;;;;;5038025;28;25091;-63
2024/04/02 04:49:50;;;;;;;6.07;2.78;;;;;;;;;;5042778;28;25079;-63
2024/04/02 04:52:16;;;;;;;7.63;2.42;;;;;;;;;;5041893;28;25126;-63
2024/04/02 04:54:43;;;;;;;6.53;2.55;;;;;;;;;;5038407;28;25114;-61
2024/04/02 04:57:09;;;;;;;10.70;2.92;;;;;;;;;;5041274;28;25102;-64
2024/04/02 04:59:35;;;;;;;11.40;2.45;;;;;;;;;;5042092;28;25043;-62
2024/04/02 05:02:01;;;;;;;13.73;3.13;;;;;;;;;;5037678;28;25065;-63
2024/04/02 05:04:27;;;;;;;3.10;2.05;;;;;;;;;;5044489;28;25056;-63
2024/04/02 05:06:53;;;;;;;7.72;3.08;;;;;;;;;;5045076;28;25066;-65
2024/04/02 05:09:20;;;;;;;7.82;3.17;;;;;;;;;;5046863;28;25152;-62
2024/04/02 05:11:46;;;;;;;7.22;2.83;;;;;;;;;;5041446;28;25097;-68
2024/04/02 05:14:12;;;;;;;11.45;2.90;;;;;;;;;;5041791;28;25150;-63
2024/04/02 05:16:38;;;;;;;11.93;3.00;;;;;;;;;;5044294;28;25070;-63
2024/04/02 05:19:04;;;;;;;8.20;2.55;;;;;;;;;;5039974;28;25090;-64
2024/04/02 05:21:30;;;;;;;9.65;3.50;;;;;;;;;;5043838;28;25130;-65
2024/04/02 05:23:56;;;;;;;6.72;2.58;;;;;;;;;;5042181;28;25054;-62
2024/04/02 05:26:23;;;;;;;7.55;2.80;;;;;;;;;;5040725;28;25150;-62
2024/04/02 05:28:49;;;;;;;12.73;3.13;;;;;;;;;;5045875;28;25075;-63
2024/04/02 05:31:16;;;;;;;8.68;2.65;;;;;;;;;;5041077;28;25054;-62
2024/04/02 05:33:43;;;;;;;9.27;3.03;;;;;;;;;;5058682;28;25069;-63
2024/04/02 05:36:08;;;;;;;11.18;3.30;;;;;;;;;;5040664;28;25057;-62
2024/04/02 05:38:34;;;;;;;9.63;3.42;;;;;;;;;;5045272;28;25068;-63
2024/04/02 05:41:01;;;;;;;8.00;2.30;;;;;;;;;;5043251;28;25091;-64
2024/04/02 05:43:27;;;;;;;14.88;3.85;;;;;;;;;;5047148;28;25158;-64
2024/04/02 05:45:53;;;;;;;9.57;3.30;;;;;;;;;;5044816;28;25139;-64
2024/04/02 05:48:20;;;;;;;12.32;3.30;;;;;;;;;;5042999;28;25090;-63
2024/04/02 05:50:53;;;;;;;11.65;3.22;;;;;;;;;;5039631;28;25117;-63
2024/04/02 05:53:19;;;;;;;8.32;2.67;;;;;;;;;;5042777;28;25054;-64
2024/04/02 05:55:45;;;;;;;8.13;2.72;;;;;;;;;;5046446;28;25071;-63
2024/04/02 05:58:11;;;;;;;14.43;3.45;;;;;;;;;;5047934;28;25057;-64
2024/04/02 06:00:37;;;;;;;7.75;2.88;;;;;;;;;;5046381;28;25121;-66
2024/04/02 06:03:03;;;;;;;8.27;2.80;;;;;;;;;;5045331;28;25065;-63
2024/04/02 06:05:29;;;;;;;11.75;2.72;;;;;;;;;;5046198;28;25079;-61
2024/04/02 06:07:57;;;;;;;17.05;3.50;;;;;;;;;;5047069;28;25054;-63
2024/04/02 06:10:23;;;;;;;12.60;3.00;;;;;;;;;;5048175;28;25076;-63
2024/04/02 06:12:49;;;;;;;10.23;3.70;;;;;;;;;;5045359;28;25073;-64
2024/04/02 06:15:15;;;;;;;9.30;3.30;;;;;;;;;;5047180;28;25070;-65
2024/04/02 06:17:41;;;;;;;15.50;3.38;;;;;;;;;;5045226;28;25071;-63
2024/04/02 06:20:08;;;;;;;11.10;3.45;;;;;;;;;;5048544;28;25066;-62
2024/04/02 06:22:35;;;;;;;13.43;3.10;;;;;;;;;;5050187;28;25065;-63
2024/04/02 06:25:02;;;;;;;9.35;3.33;;;;;;;;;;5047597;28;25098;-60
2024/04/02 06:27:28;;;;;;;18.15;3.53;;;;;;;;;;5047675;28;25077;-61
2024/04/02 06:29:54;;;;;;;19.17;3.78;;;;;;;;;;5050268;28;25071;-62
2024/04/02 06:32:21;;;;;;;13.43;3.40;;;;;;;;;;5052556;28;25077;-61
2024/04/02 06:34:47;;;;;;;14.65;3.38;;;;;;;;;;5054829;28;25153;-63
2024/04/02 06:37:13;;;;;;;12.60;3.15;;;;;;;;;;5051296;28;25075;-63
2024/04/02 06:39:39;;;;;;;8.68;2.92;;;;;;;;;;5051252;28;25056;-63
2024/04/02 06:42:05;;;;;;;17.08;3.80;;;;;;;;;;5052289;28;25064;-63
2024/04/02 06:44:31;;;;;;;10.52;3.45;;;;;;;;;;5050043;28;25070;-64
2024/04/02 06:46:57;;;;;;;10.32;3.80;;;;;;;;;;5043929;28;25094;-63
2024/04/02 06:49:23;;;;;;;17.83;3.47;;;;;;;;;;5046122;28;25066;-63
2024/04/02 06:51:49;;;;;;;16.98;3.70;;;;;;;;;;5047242;28;25060;-62
2024/04/02 06:54:16;;;;;;;13.32;4.05;;;;;;;;;;5043282;28;25072;-65
2024/04/02 06:56:42;;;;;;;17.38;4.55;;;;;;;;;;5044503;28;25070;-63
2024/04/02 06:59:08;;;;;;;12.98;4.40;;;;;;;;;;5046011;28;25068;-63
2024/04/02 07:01:34;;;;;;;13.32;3.55;;;;;;;;;;5043977;28;25058;-64
2024/04/02 07:04:01;;;;;;;18.10;3.90;;;;;;;;;;5045490;28;25069;-63
2024/04/02 07:06:27;;;;;;;18.02;4.68;;;;;;;;;;5043065;28;25058;-64
2024/04/02 07:08:54;;;;;;;18.17;4.35;;;;;;;;;;5044295;28;25075;-62
2024/04/02 07:11:20;;;;;;;18.80;4.55;;;;;;;;;;5050329;28;25140;-64
2024/04/02 07:13:45;;;;;;;15.73;3.95;;;;;;;;;;5051710;28;25162;-61
2024/04/02 07:16:12;;;;;;;14.32;4.45;;;;;;;;;;5052544;28;25065;-63
2024/04/02 07:18:38;;;;;;;20.35;4.57;;;;;;;;;;5050822;28;25151;-62
2024/04/02 07:21:08;;;;;;;16.67;3.83;;;;;;;;;;5052751;28;25087;-64
2024/04/02 07:23:36;;;;;;;14.50;4.18;;;;;;;;;;5046567;28;25079;-63
2024/04/02 07:26:02;;;;;;;19.40;4.65;;;;;;;;;;5052779;28;25062;-62
2024/04/02 07:28:30;;;;;;;11.77;3.83;;;;;;;;;;5052659;28;25056;-63
2024/04/02 07:30:56;;;;;;;17.50;4.45;;;;;;;;;;5051117;28;25081;-63
2024/04/02 07:33:22;;;;;;;13.52;4.45;;;;;;;;;;5049882;28;25054;-63
2024/04/02 07:35:48;;;;;;;16.98;4.30;;;;;;;;;;5048615;28;25169;-63
2024/04/02 07:38:14;;;;;;;20.42;4.57;;;;;;;;;;5049225;28;25142;-61
2024/04/02 07:40:41;;;;;;;17.48;3.83;;;;;;;;;;5049373;28;25055;-63
2024/04/02 07:43:07;;;;;;;12.88;3.97;;;;;;;;;;5038369;28;25121;-63
2024/04/02 07:45:36;;;;;;;12.27;3.83;;;;;;;;;;5044860;28;25062;-63
2024/04/02 07:48:03;;;;;;;14.32;3.72;;;;;;;;;;5054945;28;25079;-63
2024/04/02 07:50:30;;;;;;;16.35;4.10;;;;;;;;;;5056067;28;25047;-63
2024/04/02 07:52:56;;;;;;;15.25;3.92;;;;;;;;;;5057475;28;25043;-65
2024/04/02 07:55:22;;;;;;;20.73;6.10;;;;;;;;;;5053470;28;25088;-64
2024/04/02 07:57:48;;;;;;;17.10;5.05;;;;;;;;;;5049527;28;25073;-63
2024/04/02 08:00:14;;;;;;;17.75;5.07;;;;;;;;;;5047387;28;25113;-62
2024/04/02 08:02:40;;;;;;;18.02;4.00;;;;;;;;;;5048646;28;25063;-64
2024/04/02 08:05:06;;;;;;;17.17;3.83;;;;;;;;;;5047950;28;25068;-63
2024/04/02 08:07:32;;;;;;;15.07;4.13;;;;;;;;;;5047045;28;25104;-63
2024/04/02 08:10:00;;;;;;;13.30;3.53;;;;;;;;;;5045625;28;25061;-64
2024/04/02 08:12:26;;;;;;;12.10;4.28;;;;;;;;;;5045116;28;25135;-63
2024/04/02 08:14:52;;;;;;;15.55;3.92;;;;;;;;;;5049013;28;25054;-63
2024/04/02 08:17:18;;;;;;;17.02;3.53;;;;;;;;;;5037481;28;25122;-63
2024/04/02 08:19:45;;;;;;;15.43;3.47;;;;;;;;;;5036912;28;25068;-64
2024/04/02 08:22:13;;;;;;;15.98;3.67;;;;;;;;;;5042941;28;25132;-63
2024/04/02 08:24:39;;;;;;;15.18;4.00;;;;;;;;;;5046621;28;25054;-64
2024/04/02 08:27:05;;;;;;;15.43;4.13;;;;;;;;;;5045370;28;25073;-63
2024/04/02 08:29:31;;;;;;;14.20;3.28;;;;;;;;;;5043005;28;25077;-62
2024/04/02 08:31:58;;;;;;;15.75;3.83;;;;;;;;;;5041828;28;25066;-64
2024/04/02 08:34:23;;;;;;;13.68;3.67;;;;;;;;;;5042936;28;25049;-62
2024/04/02 08:36:49;;;;;;;14.57;3.78;;;;;;;;;;5039401;28;25140;-63
2024/04/02 08:39:15;;;;;;;16.58;3.80;;;;;;;;;;5044467;28;25064;-62
2024/04/02 08:41:42;;;;;;;18.50;4.50;;;;;;;;;;5041754;28;25073;-60
2024/04/02 08:44:08;;;;;;;13.07;3.20;;;;;;;;;;5044992;28;25135;-65
2024/04/02 08:46:35;;;;;;;14.02;3.05;;;;;;;;;;5037823;28;25063;-62
2024/04/02 08:49:02;;;;;;;15.55;3.80;;;;;;;;;;5040714;28;25060;-63
2024/04/02 08:51:29;;;;;;;19.17;4.53;;;;;;;;;;5035601;28;25083;-62
2024/04/02 08:53:55;;;;;;;12.93;3.58;;;;;;;;;;5046987;28;25054;-63
2024/04/02 08:56:21;;;;;;;18.50;4.13;;;;;;;;;;5040782;28;25063;-63
2024/04/02 08:58:47;;;;;;;11.52;4.10;;;;;;;;;;5042929;28;25082;-63
2024/04/02 09:01:14;;;;;;;13.65;3.50;;;;;;;;;;5041678;28;25130;-64
2024/04/02 09:03:40;;;;;;;17.23;4.15;;;;;;;;;;5037656;28;25076;-63
2024/04/02 09:06:07;;;;;;;14.35;3.72;;;;;;;;;;5046200;28;25074;-62
2024/04/02 09:08:42;;;;;;;13.70;4.82;;;;;;;;;;5053416;28;25058;-62
2024/04/02 09:11:08;;;;;;;15.25;4.43;;;;;;;;;;5051803;28;25057;-62
2024/04/02 09:13:34;;;;;;;10.00;4.00;;;;;;;;;;5048636;28;25137;-60
2024/04/02 09:16:00;;;;;;;12.40;4.55;;;;;;;;;;5045899;28;25146;-62
2024/04/02 09:18:31;;;;;;;13.50;4.18;;;;;;;;;;5036463;28;25147;-63
2024/04/02 09:21:00;;;;;;;13.40;3.90;;;;;;;;;;5045030;28;25065;-64
2024/04/02 09:23:26;;;;;;;15.70;4.35;;;;;;;;;;5044002;28;25066;-63
2024/04/02 09:25:52;;;;;;;13.32;4.53;;;;;;;;;;5045349;28;25109;-64
2024/04/02 09:28:18;;;;;;;13.65;5.05;;;;;;;;;;5038479;28;25076;-62
2024/04/02 09:30:44;;;;;;;11.63;5.10;;;;;;;;;;5047770;28;25076;-62
2024/04/02 09:33:10;;;;;;;11.45;5.18;;;;;;;;;;5045974;28;25058;-61
2024/04/02 09:35:39;;;;;;;13.25;5.07;;;;;;;;;;5039064;28;25060;-62
2024/04/02 09:38:06;;;;;;;12.68;5.30;;;;;;;;;;5043849;28;25067;-63
2024/04/02 09:40:33;;;;;;;12.43;5.80;;;;;;;;;;5048603;28;25081;-63
2024/04/02 09:43:00;;;;;;;11.95;6.15;;;;;;;;;;5052603;28;25078;-65
2024/04/02 09:45:27;;;;;;;16.77;6.90;;;;;;;;;;5048488;28;25058;-63
2024/04/02 09:47:53;;;;;;;17.13;7.07;;;;;;;;;;5048543;28;25112;-64
2024/04/02 09:50:19;;;;;;;15.50;6.93;;;;;;;;;;5044254;28;25134;-63
2024/04/02 09:52:45;;;;;;;13.65;5.82;;;;;;;;;;5037639;28;25051;-61
2024/04/02 09:55:12;;;;;;;12.82;5.88;;;;;;;;;;5040906;28;25095;-62
2024/04/02 09:57:39;;;;;;;14.63;5.78;;;;;;;;;;5040708;28;25058;-61
2024/04/02 10:00:06;;;;;;;15.10;5.88;;;;;;;;;;5044483;28;25111;-64
2024/04/02 10:02:33;;;;;;;15.95;5.15;;;;;;;;;;5039880;28;25119;-64
2024/04/02 10:04:59;;;;;;;16.60;5.20;;;;;;;;;;5058625;28;25073;-61
2024/04/02 10:07:32;;;;;;;22.35;6.57;;;;;;;;;;5049922;28;25073;-63
2024/04/02 10:09:58;;;;;;;14.57;6.05;;;;;;;;;;5038299;28;25051;-63
2024/04/02 10:12:28;;;;;;;15.88;5.85;;;;;;;;;;5040310;28;25079;-62
2024/04/02 10:14:54;;;;;;;14.20;5.88;;;;;;;;;;5045866;28;25551;-63
2024/04/02 10:17:21;;;;;;;15.80;5.43;;;;;;;;;;5036529;28;25094;-65
2024/04/02 10:19:47;;;;;;;13.88;5.65;;;;;;;;;;5040375;28;25102;-63
2024/04/02 10:22:13;;;;;;;14.70;5.22;;;;;;;;;;5037206;28;25096;-63
2024/04/02 10:24:39;;;;;;;16.88;5.15;;;;;;;;;;5036803;28;25102;-65
2024/04/02 10:27:08;;;;;;;15.82;4.40;;;;;;;;;;5044678;28;25107;-63
2024/04/02 10:29:35;;;;;;;13.68;4.10;;;;;;;;;;5041534;28;25164;-62
2024/04/02 10:32:02;;;;;;;14.80;4.82;;;;;;;;;;5041429;28;25087;-63
2024/04/02 10:34:29;;;;;;;14.10;4.72;;;;;;;;;;5044357;28;25059;-64
2024/04/02 10:36:56;;;;;;;16.27;4.50;;;;;;;;;;5043796;28;25461;-61
2024/04/02 10:39:22;;;;;;;18.67;4.35;;;;;;;;;;5044861;28;25068;-67
2024/04/02 10:41:48;;;;;;;12.98;4.53;;;;;;;;;;5044649;28;25125;-62
2024/04/02 10:44:18;;;;;;;19.27;5.10;;;;;;;;;;5042640;28;25129;-64
2024/04/02 10:46:44;;;;;;;15.75;4.20;;;;;;;;;;5041158;28;25183;-63
2024/04/02 10:49:10;;;;;;;16.95;4.30;;;;;;;;;;5044953;28;25062;-61
2024/04/02 10:51:36;;;;;;;8.88;3.30;;;;;;;;;;5038505;28;25090;-61
2024/04/02 10:54:03;;;;;;;12.85;3.83;;;;;;;;;;5036313;28;25087;-62
2024/04/02 10:56:32;;;;;;;12.27;3.97;;;;;;;;;;5039569;28;25067;-62
2024/04/02 10:59:03;;;;;;;11.20;3.70;;;;;;;;;;5037552;28;25074;-64
2024/04/02 11:01:30;;;;;;;12.43;3.65;;;;;;;;;;5040248;28;25074;-61
2024/04/02 11:03:56;;;;;;;10.00;3.15;;;;;;;;;;5042909;28;25065;-61
2024/04/02 11:06:22;;;;;;;8.88;2.85;;;;;;;;;;5039467;28;25053;-64
2024/04/02 11:08:49;;;;;;;7.25;2.90;;;;;;;;;;5037022;28;25077;-63
2024/04/02 11:11:22;;;;;;;10.63;2.70;;;;;;;;;;5045906;28;25064;-63
2024/04/02 11:13:48;;;;;;;;;;;;;;;;;;5046025;28;25126;-63
2024/04/02 11:16:15;;;;;;;12.02;3.50;;;;;;;;;;5049685;28;24074;-63
2024/04/02 11:18:41;;;;;;;9.65;3.03;;;;;;;;;;5049786;28;25074;-62
2024/04/02 11:21:07;;;;;;;10.88;3.13;;;;;;;;;;5048045;28;25065;-62
2024/04/02 11:26:21;;;;;;;11.45;3.70;;;;;;;;;;5042188;28;25066;-64
2024/04/02 11:28:46;;;;;;;8.38;3.22;;;;;;;;;;5044794;28;25064;-63
2024/04/02 11:31:14;;;;;;;11.90;3.65;;;;;;;;;;5041486;28;25122;-62
2024/04/02 11:33:41;;;;;;;10.35;3.20;;;;;;;;;;5051744;28;25042;-61
2024/04/02 11:36:07;;;;;;;11.10;3.97;;;;;;;;;;5046057;28;25131;-62
2024/04/02 11:38:33;;;;;;;8.07;3.75;;;;;;;;;;5057192;28;25056;-63
2024/04/02 11:40:59;;;;;;;8.80;4.88;;;;;;;;;;5053652;28;25100;-62
2024/04/02 11:43:25;;;;;;;13.57;5.22;;;;;;;;;;5048797;28;25160;-64
2024/04/02 11:45:52;;;;;;;11.40;5.35;;;;;;;;;;5041694;28;25066;-64
2024/04/02 11:48:18;;;;;;;12.48;4.97;;;;;;;;;;5039778;28;25058;-64
2024/04/02 11:50:47;;;;;;;13.07;4.75;;;;;;;;;;5044091;28;25180;-62
2024/04/02 11:53:13;;;;;;;11.95;5.35;;;;;;;;;;5044159;28;25069;-62
2024/04/02 11:55:42;;;;;;;21.20;5.53;;;;;;;;;;5043630;28;25085;-63
2024/04/02 12:00:53;;;;;;;19.73;6.28;;;;;;;;;;5044041;28;25060;-64
2024/04/02 12:03:19;;;;;;;14.70;5.82;;;;;;;;;;5045196;28;25129;-64
2024/04/02 12:05:45;;;;;;;19.92;6.13;;;;;;;;;;5041140;28;25072;-63
2024/04/02 12:08:11;;;;;;;19.75;6.53;;;;;;;;;;5042746;28;25060;-63
2024/04/02 12:10:37;;;;;;;19.98;6.57;;;;;;;;;;5048143;28;25064;-63
2024/04/02 12:13:04;;;;;;;16.23;6.25;;;;;;;;;;5043599;28;25166;-63
2024/04/02 12:15:29;;;;;;;17.23;6.88;;;;;;;;;;5045233;28;25168;-63
2024/04/02 12:17:59;;;;;;;16.67;6.68;;;;;;;;;;5043092;28;25079;-65
2024/04/02 12:20:25;;;;;;;19.45;6.57;;;;;;;;;;5043138;28;25121;-62
2024/04/02 12:22:50;;;;;;;17.88;6.70;;;;;;;;;;5046466;28;25078;-64
2024/04/02 12:25:17;;;;;;;13.93;5.65;;;;;;;;;;5044958;28;25075;-64
2024/04/02 12:27:42;;;;;;;12.70;5.35;;;;;;;;;;5041998;28;25068;-64
2024/04/02 12:30:09;;;;;;;11.75;5.45;;;;;;;;;;5044526;28;25063;-63
2024/04/02 12:32:35;;;;;;;11.10;6.10;;;;;;;;;;5050123;28;25157;-62
2024/04/02 12:35:02;;;;;;;11.65;5.63;;;;;;;;;;5047501;28;25065;-64
2024/04/02 12:37:28;;;;;;;8.18;5.22;;;;;;;;;;5045162;28;25051;-62
2024/04/02 12:39:55;;;;;;;17.00;6.32;;;;;;;;;;5042920;28;25048;-64
2024/04/02 12:42:21;;;;;;;13.18;5.68;;;;;;;;;;5047110;28;25113;-65
2024/04/02 12:44:48;;;;;;;12.07;5.45;;;;;;;;;;5043700;28;25128;-64
2024/04/02 12:47:14;;;;;;;12.68;5.38;;;;;;;;;;5047443;28;25087;-65
2024/04/02 12:49:40;;;;;;;14.27;6.28;;;;;;;;;;5048395;28;25088;-62
2024/04/02 12:52:07;;;;;;;12.70;5.10;;;;;;;;;;5060840;28;25093;-62
2024/04/02 12:54:33;;;;;;;12.75;5.68;;;;;;;;;;5060400;28;25060;-64
2024/04/02 12:56:59;;;;;;;10.85;5.82;;;;;;;;;;5057919;28;25063;-61
2024/04/02 12:59:25;;;;;;;14.32;5.97;;;;;;;;;;5047148;28;25059;-62
2024/04/02 13:01:51;;;;;;;11.32;5.90;;;;;;;;;;5047568;28;25059;-62
2024/04/02 13:04:17;;;;;;;13.93;6.05;;;;;;;;;;5043351;28;25147;-62
2024/04/02 13:06:43;;;;;;;14.20;6.40;;;;;;;;;;5040238;28;24819;-63
2024/04/02 13:09:09;;;;;;;14.10;5.50;;;;;;;;;;5041372;28;25076;-64
2024/04/02 13:11:35;;;;;;;14.30;5.80;;;;;;;;;;5045294;28;25082;-62
2024/04/02 13:14:01;;;;;;;9.23;5.15;;;;;;;;;;5043476;28;25068;-60
2024/04/02 13:16:31;;;;;;;11.38;5.28;;;;;;;;;;5047753;28;25079;-63
2024/04/02 13:18:58;;;;;;;9.75;6.00;;;;;;;;;;5040604;28;25138;-64
2024/04/02 13:21:24;;;;;;;12.82;5.90;;;;;;;;;;5039819;28;25146;-65
2024/04/02 13:23:50;;;;;;;12.45;6.22;;;;;;;;;;5045741;28;25075;-63
2024/04/02 13:26:16;;;;;;;15.25;5.43;;;;;;;;;;5044896;28;25082;-65
2024/04/02 13:28:42;;;;;;;10.05;5.72;;;;;;;;;;5046249;28;25142;-63
2024/04/02 13:31:09;;;;;;;8.27;5.32;;;;;;;;;;5050346;28;25138;-64
2024/04/02 13:33:35;;;;;;;12.13;5.68;;;;;;;;;;5063193;28;25049;-64
2024/04/02 13:36:07;;;;;;;15.10;5.47;;;;;;;;;;5064718;28;25074;-63
2024/04/02 13:38:33;;;;;;;14.23;5.70;;;;;;;;;;5058330;28;25162;-64
2024/04/02 13:41:00;;;;;;;11.43;5.15;;;;;;;;;;5051203;28;25098;-63
2024/04/02 13:43:26;;;;;;;12.75;4.53;;;;;;;;;;5053655;28;25103;-63
2024/04/02 13:46:01;;;;;;;10.27;4.75;;;;;;;;;;5049400;28;25059;-64
2024/04/02 13:48:28;;;;;;;9.50;4.63;;;;;;;;;;5045883;28;25058;-64
2024/04/02 13:51:04;;;;;;;12.68;3.58;;;;;;;;;;5046901;28;25122;-63
2024/04/02 13:53:31;;;;;;;10.63;3.03;;;;;;;;;;5039693;28;25056;-62
2024/04/02 13:55:57;;;;;;;13.02;3.05;;;;;;;;;;5044988;28;25101;-67
2024/04/02 13:58:23;;;;;;;10.80;3.35;;;;;;;;;;5045882;28;25157;-63
2024/04/02 14:00:49;;;;;;;9.25;3.00;;;;;;;;;;5040472;28;25056;-64
2024/04/02 14:03:15;;;;;;;12.02;3.20;;;;;;;;;;5041275;28;25056;-64
2024/04/02 14:05:41;;;;;;;5.32;2.55;;;;;;;;;;5042275;28;25135;-62
2024/04/02 14:08:07;;;;;;;10.00;3.47;;;;;;;;;;5047519;28;25062;-64
2024/04/02 14:10:34;;;;;;;18.80;5.15;;;;;;;;;;5043913;28;25076;-65
2024/04/02 14:13:00;;;;;;;16.20;3.90;;;;;;;;;;5036171;28;25068;-66
2024/04/02 14:15:33;;;;;;;12.02;3.78;;;;;;;;;;5042061;28;25137;-63
2024/04/02 14:17:59;;;;;;;;;;;;;;;;;;5046993;28;25078;-63
2024/04/02 14:20:25;;;;;;;8.68;2.85;;;;;;;;;;5043006;28;25046;-63
2024/04/02 14:22:51;;;;;;;10.00;3.15;;;;;;;;;;5039296;28;25094;-65
2024/04/02 14:25:17;;;;;;;12.35;3.08;;;;;;;;;;5045131;28;25075;-64
2024/04/02 14:27:43;;;;;;;8.48;2.50;;;;;;;;;;5045259;28;25145;-64
2024/04/02 14:30:09;;;;;;;9.85;2.70;;;;;;;;;;5044968;28;25133;-64
2024/04/02 14:32:35;;;;;;;10.75;2.90;;;;;;;;;;5042151;28;25081;-64
2024/04/02 14:35:01;;;;;;;8.35;2.15;;;;;;;;;;5042894;28;25112;-62
2024/04/02 14:37:27;;;;;;;6.45;2.20;;;;;;;;;;5045802;28;25149;-63